Terminal Aerodrome Forecast
Issued by NWS

Home | Current Version | Previous Version | Text Only | Print | Product List | Glossary On
Versions: 1 2 3 4 5 6 7 8 9 10 11 12 13 14
483
FTUS42 KGSP 221738
TAFAND
TAF
KAND 221738Z 2218/2318 07006KT P6SM SCT045
     FM230000 VRB03KT P6SM FEW050
     FM231100 00000KT 5SM BR FEW200
     FM231300 06005KT P6SM FEW040 SCT200=

USA.gov is the U.S. government's official web portal to all federal, state and local government web resources and services.